»·PEaware :: JNY60 KPHX-KLAS

JNY60 :: KPHX-KLAS

FLIGHT INFORMATION

Flight Status: Arrived
Operator: Unknown
More flights by this operator :: More flights under this callsign
Pilot: Max W. (2591)
Aircraft: BOEING 757-200
(B752)
More flights by this aircraft type
Origin: KPHX Phoenix Sky Harbor Intl
United States
Destination: KLAS McCarran Intl
United States
More flights between these airports :: More routes between these airports
Route: +ZEPER1 SISIE IGM TYSSN5
File this flight plan on PilotEdge
Remarks: KEITH IS HAPPY
Altitude:
(Current/Filed)
28,000ft
Speed:
(Current/Filed)
450kts
Departed: 11-Sep-19 06:52 PM
Arrived: 11-Sep-19 07:36 PM
Distance/Time
Traveled:
222nm/0:44
Distance/Time
To Go:
Arrived

Flight Plot

Page will automatically refresh every two minutes.

Flight plan parsing failed; only flown route is shown


Map Options




Map Legend


Flown Route
Filed Route
Departure Airport
Arrival Airport
Navaid (VOR, NDB)
Fix

Horizontal Profiles

Position Reports

Time Latitude Longitude Heading Altitude Ground
Speed
11-Sep-19 18:22 33.426700 -112.019591 270 1120ft 0kts
11-Sep-19 18:23 33.426700 -112.019591 270 1120ft 0kts
11-Sep-19 18:24 33.426700 -112.019591 270 1120ft 0kts
11-Sep-19 18:25 33.426700 -112.019591 270 1120ft 0kts
11-Sep-19 18:26 33.426700 -112.019591 270 1120ft 0kts
11-Sep-19 18:27 33.426700 -112.019591 270 1120ft 0kts
11-Sep-19 18:28 33.426700 -112.019591 270 1120ft 0kts
11-Sep-19 18:29 33.426700 -112.019591 270 1120ft 0kts
11-Sep-19 18:30 33.426700 -112.019591 270 1120ft 0kts
11-Sep-19 18:31 33.426700 -112.019591 270 1120ft 0kts
11-Sep-19 18:32 33.426700 -112.019591 270 1120ft 0kts
11-Sep-19 18:33 33.426700 -112.019591 270 1120ft 0kts
11-Sep-19 18:34 33.426700 -112.019591 270 1120ft 0kts
11-Sep-19 18:35 33.426703 -112.019928 270 1120ft 5kts
11-Sep-19 18:36 33.426998 -112.021048 356 1120ft 0kts
11-Sep-19 18:37 33.426998 -112.021048 356 1120ft 0kts
11-Sep-19 18:38 33.426998 -112.021049 355 1120ft 0kts
11-Sep-19 18:39 33.426998 -112.021049 355 1120ft 0kts
11-Sep-19 18:40 33.426998 -112.021049 355 1120ft 0kts
11-Sep-19 18:41 33.426998 -112.021049 355 1120ft 0kts
11-Sep-19 18:42 33.426998 -112.021049 355 1120ft 0kts
11-Sep-19 18:43 33.426998 -112.021049 355 1120ft 0kts
11-Sep-19 18:44 33.426998 -112.021049 355 1120ft 0kts
11-Sep-19 18:45 33.427776 -112.019802 91 1120ft 24kts
11-Sep-19 18:46 33.427748 -112.012180 90 1120ft 20kts
11-Sep-19 18:47 33.427739 -112.006363 89 1120ft 14kts
11-Sep-19 18:48 33.427814 -112.005521 59 1120ft 0kts
11-Sep-19 18:49 33.427814 -112.005520 59 1120ft 0kts
11-Sep-19 18:50 33.427814 -112.005520 59 1120ft 0kts
11-Sep-19 18:51 33.428847 -112.013832 270 1120ft 111kts
11-Sep-19 18:52 33.429564 -112.064543 271 2420ft 176kts
11-Sep-19 18:53 33.431452 -112.136103 272 3778ft 242kts
11-Sep-19 18:54 33.474607 -112.187871 8 6225ft 273kts
11-Sep-19 18:55 33.549424 -112.196228 343 9524ft 284kts
11-Sep-19 18:56 33.637191 -112.221670 344 11420ft 376kts
11-Sep-19 18:57 33.740986 -112.251486 343 15087ft 394kts
11-Sep-19 18:58 33.849553 -112.282814 343 18097ft 411kts
11-Sep-19 18:59 33.962291 -112.315436 343 20951ft 426kts
11-Sep-19 19:00 34.066163 -112.375075 318 24287ft 410kts
11-Sep-19 19:01 34.150213 -112.457763 316 27345ft 400kts
11-Sep-19 19:02 34.234952 -112.542994 316 28138ft 395kts
11-Sep-19 19:03 34.324555 -112.633637 316 28091ft 441kts
11-Sep-19 19:04 34.419604 -112.729965 316 28094ft 459kts
11-Sep-19 19:05 34.517536 -112.829548 316 28093ft 461kts
11-Sep-19 19:06 34.614742 -112.931937 314 28092ft 463kts
11-Sep-19 19:07 34.709452 -113.035472 315 28145ft 468kts
11-Sep-19 19:08 34.806483 -113.141795 315 28113ft 469kts
11-Sep-19 19:09 34.903267 -113.248206 315 28076ft 467kts
11-Sep-19 19:10 35.005514 -113.341232 334 28061ft 461kts
11-Sep-19 19:11 35.123102 -113.382105 340 28057ft 459kts
11-Sep-19 19:12 35.247368 -113.422347 340 27434ft 463kts
11-Sep-19 19:13 35.371892 -113.462555 341 25292ft 467kts
11-Sep-19 19:14 35.493668 -113.501932 342 23153ft 446kts
11-Sep-19 19:15 35.590018 -113.584331 303 21091ft 423kts
11-Sep-19 19:16 35.624765 -113.716482 283 19076ft 414kts
11-Sep-19 19:17 35.649694 -113.852529 282 16533ft 406kts
11-Sep-19 19:18 35.673497 -113.987138 282 14723ft 400kts
11-Sep-19 19:19 35.696894 -114.120873 284 12912ft 397kts
11-Sep-19 19:20 35.720018 -114.253898 284 12071ft 372kts
11-Sep-19 19:21 35.739891 -114.359027 298 12071ft 296kts
11-Sep-19 19:22 35.805966 -114.412823 339 11278ft 290kts
11-Sep-19 19:23 35.879912 -114.447756 340 10050ft 280kts
11-Sep-19 19:24 35.916840 -114.525201 271 8998ft 293kts
11-Sep-19 19:25 35.915255 -114.624356 271 8046ft 288kts
11-Sep-19 19:26 35.913850 -114.720901 271 8044ft 289kts
11-Sep-19 19:27 35.912308 -114.812475 271 8035ft 240kts
11-Sep-19 19:28 35.911211 -114.887916 284 8020ft 209kts
11-Sep-19 19:29 35.934920 -114.958762 296 6438ft 227kts
11-Sep-19 19:30 35.960340 -115.029807 296 6040ft 228kts
11-Sep-19 19:31 35.986306 -115.101275 296 5036ft 225kts
11-Sep-19 19:32 36.011097 -115.160491 319 3791ft 149kts
11-Sep-19 19:33 36.045022 -115.177523 355 2907ft 131kts
11-Sep-19 19:34 36.079409 -115.168043 23 2134ft 122kts
11-Sep-19 19:35 36.089372 -115.163674 239 2123ft 0kts
11-Sep-19 19:36 36.084336 -115.166823 209 2123ft 28kts
11-Sep-19 19:37 36.082190 -115.169514 262 2123ft 0kts

Navigation Log

Ident Type
Flight plan parsing failed, navigation log unavailable